Lithopolis, Ohio
Current Conditions -  °F | °C
As of 11:55 AM on Thursday 30 Oct 2014 (Local Time) from KLCK Reporting Station
Overcast Overcast  
Wind Chill: 45°   Ceiling: 4400
Heat Index: 47°   Visibility: 10mi
Dew Point: 35°   Wind: 5mph
Humidity: 63%   Direction: 330°NNW
Pressure: 30.15"   Gusts: NA
Location:  39.8°N, 82.81°W
Report Text: KLCK 301555Z AUTO 33004KT 10SM OVC044 08/02 A3015 RMK AO2 T00840017
Loading
Personal Weather Stations






























Interactive Weather Map
Tropical Storm Tracking
New forecast layout! Learn more

10-Day Weather Forecast

Advertisements
Track Severe Weather on mobile